Chicago, IL (60659)

1:50 PM CST on February 01, 2015 (GMT -0600)
West Rogers Park | Change Station
CLOSE
Current Station
Personal Weather Station
Location: Chicago, IL
Elevation: 595 ft
Nearby Weather Stations

Elev 595 ft 42.00 °N, 87.69 °W | Updated 8 seconds ago

Snow
Snow
26.6 °F
Feels Like 20 °F
N
5.3
Wind Variable Wind from North
Gusts 10.3 mph

Today
High -- | Low -- °F
--% Chance of Precip.
Yesterday
High -- | Low -- °F
Precip. -- in
7:03 AM 5:05 PM
Waxing Gibbous, 96% visible
Pressure 29.78 in
Visibility 0.5 miles
Clouds Mostly Cloudy 900 ft
Overcast 1500 ft
Windchill 20 °F
Dew Point 26 °F
Humidity 98%
Rainfall 0.00 in
Snow Depth Not available.
UV 1 out of 12
Pollen .10 out of 12
Air Quality Not available.
Flu Activity Not available.
SPECI KORD 011938Z 05019G23KT 1/2SM R10L/2200V5500FT SN BLSN FZFG BKN009 OVC015 M04/M05 A2978 RMK AO2 PK WND 05028/1916 P0005 T10391050

More Conditions Fewer Conditions

Pressure 29.78 in
Visibility 0.5 miles
Clouds Mostly Cloudy 900 ft
Overcast 1500 ft
Windchill 20 °F
Dew Point 26 °F
Humidity 98%
Rainfall 0.00 in
Snow Depth Not available.
UV 1 out of 12
Pollen .10 out of 12
Air Quality Not available.
Flu Activity Not available.
SPECI KORD 011938Z 05019G23KT 1/2SM R10L/2200V5500FT SN BLSN FZFG BKN009 OVC015 M04/M05 A2978 RMK AO2 PK WND 05028/1916 P0005 T10391050

More Conditions Fewer Conditions

10-Day Weather Forecast

Almanac

Astronomy

Feb. 01, 2015 Rise Set
Actual Time
Civil Twilight
Nautical Twilight
Astronomical Twilight
Moon
Length of Visible Light
Length of Day
Tomorrow will be .
, % of the Moon is Illuminated

Today's Extremes

State Highs State Lows

Community

WunderPhotos

Upload Photos

1,792,471 photos uploaded!

WunderBlogs® & News

Nearby

Air Quality

  Air Quality AQ Index Pollutant
Not available.

Snow Depth

Station Depth Elevation

Earthquake Activity

City Distance Mag. Time & Date
Minimum magnitude displayed is 2.5.

Coastal Water Temperatures

Place Temperature

Nearby Weather Stations